< < Back
Terminal Aerodrome Forecast


Current Version              Previous Versions:   1  2  3  4  5  6  7  8  9  

Terminal Aerodrome Forecast

676
FTUS42 KJAX 261700
TAFJAX
TAF
KJAX 261729Z 2618/2718 29012G18KT P6SM FEW025
     FM262200 26005KT P6SM SKC
     FM271400 30013G23KT P6SM FEW030=

Latest METAR

396
SAUS80 KWBC 271300
MTRJAX
METAR KJAX 271256Z 26007KT 10SM CLR 07/05 A3025 RMK AO2 SLP244 T00720050
$


USA.gov is the U.S. government's official web portal to all federal, state and local government web resources and services.